الصفحة الرئيسية
METAR-TAF:

METAR-TAF

مطار :

Hayden, كولورادو, الولايات المتحدة

دائرة عرض: 40-29N, خط طول: 107-13W, ارتفاع: 2012 متر

مراقبة الطقس الحالي

تاريخ ووقت الإصدار 22 دقيقة قبل الساعة 21:56UTC
ريح 3 عقدةمن اتجاهات متغيرة
درجة الحرارة 3°درجة مئوية
الرطوبة 32%
ضغط 1028 hPa
الرؤية: 16.1 كم
سماء صافية

METAR: KHDN 152156Z AUTO VRB03KT 10SM CLR 03/M12 A3037 RMK AO2 SLP317 T00331117

زمن: 16:18 (22:18 UTC)

توقعات

تاريخ ووقت الإصدار 4ساعات و 58 دقيقة قبل الساعة 17:20UTC
التوقعات صالحة من15 الساعة 18 UTC إلى 16 الساعة 18 UTC
ريح 5 عقدة من الشرق/الجنوب الشرقي
الرؤية: 10 كم
سماء صافية
من 15 الساعة 2100 UTC
ريح 6 عقدة من الشمال/الشمال الغربي
الرؤية: 10 كم
سماء صافية
من 16 الساعة 0300 UTC
ريح 4 عقدة من الشرق/الجنوب الشرقي
الرؤية: 10 كم
سماء صافية

TAF: KHDN 151720Z 1518/1618 12005KT P6SM SKC FM152100 34006KT P6SM SKC FM160300 11004KT P6SM SKC

أرصاد الطقس والتوقعات من أكثر من 4000 مطار (تقارير الطقس للمطار METAR والتنبؤ بالطقس بالمطارTAF).

المحطات المتاحة هي النقط الصفراء والحمراء على الخريطة.

حرك المؤشر فوق النقطة لمعرفة اسم المحطة.

ثم انقر لمعرفة أرصاد وتوقعات الطقس.

لتغيير الخارطة: اضغط على الأزرار الخضراء مع رمز الصليب الأسود للتكبير. على الزر الأخضر مع شرطة للتصغير، أو على الأسهم الخضراء للخرائط المجاورة.


METAR-TAF: